Time;durP1;ratioP1;P1;durP2;ratioP2;P2;SDS_P1;SDS_P2;PMS_P1;PMS_P2;Temp;Humidity;BMP_temperature;BMP_pressure;BME280_temperature;BME280_humidity;BME280_pressure;Samples;Min_cycle;Max_cycle;Signal;HPM_P1;HPM_P2
2023/11/04 00:04:43;;;;;;;8.15;1.77;;;;;;;8.72;69.17;98002.03;10391794;28;20103;-65
2023/11/04 00:09:45;;;;;;;10.32;1.60;;;;;;;8.79;69.35;97999.28;10385661;28;20541;-64
2023/11/04 00:14:53;;;;;;;1.85;0.90;;;;;;;8.83;69.29;98003.16;10416965;28;20121;-64
2023/11/04 00:19:54;;;;;;;5.25;1.00;;;;;;;8.89;69.80;97991.56;10439006;28;20048;-64
2023/11/04 00:24:56;;;;;;;3.42;0.85;;;;;;;9.05;69.60;97989.31;10437886;28;20041;-65
2023/11/04 00:29:58;;;;;;;3.25;0.70;;;;;;;9.15;69.67;97997.63;10421086;28;20091;-65
2023/11/04 00:34:59;;;;;;;4.80;0.70;;;;;;;9.20;69.49;97994.28;10436255;28;20053;-64
2023/11/04 00:40:01;;;;;;;3.25;0.70;;;;;;;9.28;69.48;97986.75;10417960;28;20033;-65
2023/11/04 00:45:03;;;;;;;2.25;0.60;;;;;;;9.37;69.31;97989.13;10404299;28;20037;-66
2023/11/04 00:50:05;;;;;;;5.05;0.52;;;;;;;9.49;69.27;97979.25;10436410;28;20041;-65
2023/11/04 00:55:20;;;;;;;2.47;0.50;;;;;;;9.53;69.29;97978.56;10417543;28;20742;-64
2023/11/04 01:00:25;;;;;;;5.18;0.50;;;;;;;9.63;68.98;97982.56;10434818;28;20049;-65
2023/11/04 01:05:27;;;;;;;1.95;0.70;;;;;;;9.72;68.66;97986.56;10435378;28;20061;-66
2023/11/04 01:10:30;;;;;;;1.98;0.70;;;;;;;9.70;68.48;97984.09;10419091;28;20416;-67
2023/11/04 01:15:31;;;;;;;1.20;0.40;;;;;;;9.79;68.43;97986.47;10415779;28;20420;-66
2023/11/04 01:20:33;;;;;;;2.17;0.60;;;;;;;9.80;68.35;97972.81;10396097;28;20075;-66
2023/11/04 01:25:34;;;;;;;2.55;0.40;;;;;;;9.84;68.38;97968.63;10385913;28;20049;-64
2023/11/04 01:30:36;;;;;;;0.47;0.30;;;;;;;9.98;68.17;97969.25;10399881;28;20108;-65
2023/11/04 01:35:37;;;;;;;2.78;0.40;;;;;;;10.07;67.82;97964.34;10384531;28;20598;-65
2023/11/04 01:40:39;;;;;;;1.95;0.40;;;;;;;10.07;67.79;97975.91;10401034;28;20049;-65
2023/11/04 01:45:41;;;;;;;2.15;0.40;;;;;;;10.17;67.12;97975.34;10403582;28;20045;-66
2023/11/04 01:50:42;;;;;;;2.58;0.40;;;;;;;10.16;67.46;97971.00;10399414;28;20045;-65
2023/11/04 01:55:44;;;;;;;1.08;0.30;;;;;;;10.24;67.09;97969.84;10399231;28;20052;-65
2023/11/04 02:00:46;;;;;;;3.92;0.30;;;;;;;10.17;67.24;97969.97;10396127;28;20136;-66
2023/11/04 02:05:47;;;;;;;0.70;0.30;;;;;;;10.15;67.04;97966.72;10378319;28;20069;-65
2023/11/04 02:10:49;;;;;;;2.25;0.50;;;;;;;10.25;66.41;97966.13;10406069;28;20400;-65
2023/11/04 02:15:51;;;;;;;1.40;0.30;;;;;;;10.27;66.82;97964.84;10407746;28;20481;-66
2023/11/04 02:20:57;;;;;;;0.80;0.30;;;;;;;10.23;66.71;97960.97;10399062;28;20104;-66
2023/11/04 02:25:58;;;;;;;3.28;0.40;;;;;;;10.32;66.55;97966.84;10414826;28;20069;-65
2023/11/04 02:31:00;;;;;;;0.57;0.30;;;;;;;10.32;66.24;97967.66;10391804;28;20046;-65
2023/11/04 02:36:01;;;;;;;1.98;0.40;;;;;;;10.34;66.58;97969.31;10403489;28;20049;-66
2023/11/04 02:41:03;;;;;;;4.43;1.33;;;;;;;10.44;66.07;97959.59;10386704;28;20083;-66
2023/11/04 02:46:05;;;;;;;0.63;0.30;;;;;;;10.41;66.01;97953.91;10405013;28;20052;-66
2023/11/04 02:51:06;;;;;;;0.40;0.30;;;;;;;10.31;66.43;97949.91;10392173;28;20056;-67
2023/11/04 02:56:08;;;;;;;0.90;0.40;;;;;;;10.21;66.58;97938.91;10403559;28;20045;-67
2023/11/04 03:01:09;;;;;;;3.25;0.52;;;;;;;10.26;66.37;97932.84;10409062;28;20053;-67
2023/11/04 03:06:21;;;;;;;1.17;0.40;;;;;;;10.38;65.78;97933.69;10349082;28;20037;-67
2023/11/04 03:11:23;;;;;;;3.03;0.50;;;;;;;10.27;66.04;97939.88;10401167;28;20096;-67
2023/11/04 03:16:24;;;;;;;2.92;0.80;;;;;;;10.31;65.87;97935.69;10393920;28;20053;-67
2023/11/04 03:21:26;;;;;;;6.18;1.83;;;;;;;10.31;66.41;97931.13;10426975;28;20136;-66
2023/11/04 03:26:27;;;;;;;1.60;0.45;;;;;;;10.27;66.19;97938.00;10416468;28;20085;-66
2023/11/04 03:31:30;;;;;;;2.22;0.60;;;;;;;10.31;66.29;97930.31;10427831;28;20068;-66
2023/11/04 03:36:32;;;;;;;1.13;1.02;;;;;;;10.23;66.16;97925.25;10433677;28;20045;-66
2023/11/04 03:41:33;;;;;;;2.05;0.40;;;;;;;10.29;65.74;97927.03;10437366;28;20037;-66
2023/11/04 03:46:35;;;;;;;2.63;0.68;;;;;;;10.31;65.76;97928.44;10436440;28;20067;-66
2023/11/04 03:51:36;;;;;;;1.25;0.50;;;;;;;10.25;65.91;97923.97;10412310;28;20045;-65
2023/11/04 03:56:37;;;;;;;0.90;0.38;;;;;;;10.34;65.71;97923.66;10420601;28;20115;-66
2023/11/04 04:01:40;;;;;;;4.55;0.55;;;;;;;10.34;65.49;97916.41;10407999;28;20051;-66
2023/11/04 04:06:42;;;;;;;2.90;0.50;;;;;;;10.39;65.71;97918.41;10428645;28;20052;-66
2023/11/04 04:11:43;;;;;;;1.70;0.60;;;;;;;10.28;66.00;97910.06;10428717;28;20037;-66
2023/11/04 04:16:45;;;;;;;1.67;0.40;;;;;;;10.25;65.98;97899.00;10426862;28;20049;-65
2023/11/04 04:21:47;;;;;;;3.47;0.55;;;;;;;10.17;66.25;97894.81;10406187;28;20046;-65
2023/11/04 04:26:48;;;;;;;5.18;0.47;;;;;;;10.27;65.50;97870.88;10420596;28;20048;-66
2023/11/04 04:31:52;;;;;;;1.13;0.30;;;;;;;10.31;65.65;97874.75;10420454;28;20452;-66
2023/11/04 04:36:54;;;;;;;1.08;0.40;;;;;;;10.28;65.87;97866.31;10428248;28;20047;-66
2023/11/04 04:41:55;;;;;;;3.35;0.50;;;;;;;10.30;65.91;97853.47;10436415;28;20056;-66
2023/11/04 04:46:57;;;;;;;1.48;0.85;;;;;;;10.29;65.54;97851.84;10417728;28;20048;-66
2023/11/04 04:51:58;;;;;;;0.70;0.30;;;;;;;10.39;65.24;97853.97;10411640;28;20060;-66
2023/11/04 04:57:00;;;;;;;6.07;1.10;;;;;;;10.41;64.95;97851.84;10414252;28;20051;-66
2023/11/04 05:02:04;;;;;;;2.97;0.52;;;;;;;10.44;65.46;97849.47;10419392;28;20049;-67
2023/11/04 05:07:06;;;;;;;5.22;0.55;;;;;;;10.36;65.41;97847.16;10416137;28;20045;-67
2023/11/04 05:12:07;;;;;;;1.85;0.32;;;;;;;10.35;65.49;97840.19;10420934;28;20041;-66
2023/11/04 05:17:08;;;;;;;2.63;0.40;;;;;;;10.41;65.33;97835.75;10415243;28;20766;-66
2023/11/04 05:22:10;;;;;;;1.27;0.38;;;;;;;10.36;65.49;97833.75;10424639;28;20075;-66
2023/11/04 05:27:12;;;;;;;1.73;0.40;;;;;;;10.45;65.15;97824.28;10418836;28;20037;-66
2023/11/04 05:32:13;;;;;;;2.22;0.70;;;;;;;10.47;65.29;97819.47;10426027;28;20045;-67
2023/11/04 05:37:14;;;;;;;1.10;0.30;;;;;;;10.50;65.11;97807.44;10402636;28;20087;-66
2023/11/04 05:42:16;;;;;;;0.40;0.30;;;;;;;10.52;65.25;97800.78;10408855;28;20438;-65
2023/11/04 05:47:17;;;;;;;1.95;0.30;;;;;;;10.57;65.32;97801.94;10401649;28;20043;-66
2023/11/04 05:52:19;;;;;;;2.92;0.35;;;;;;;10.53;65.42;97796.22;10400873;28;20381;-66
2023/11/04 05:57:20;;;;;;;1.95;0.20;;;;;;;10.47;65.41;97789.13;10405006;28;20037;-65
2023/11/04 06:02:22;;;;;;;3.67;0.90;;;;;;;10.48;65.43;97786.19;10414311;28;20056;-67
2023/11/04 06:07:23;;;;;;;1.25;0.30;;;;;;;10.54;65.18;97789.78;10420734;28;20539;-64
2023/11/04 06:12:25;;;;;;;1.40;0.30;;;;;;;10.48;65.67;97786.19;10416252;28;20155;-65
2023/11/04 06:17:27;;;;;;;2.63;0.40;;;;;;;10.41;65.97;97782.84;10422771;28;20048;-66
2023/11/04 06:22:28;;;;;;;0.50;0.30;;;;;;;10.30;66.13;97784.47;10440346;28;20064;-60
2023/11/04 06:27:30;;;;;;;0.77;0.30;;;;;;;10.10;67.02;97792.91;10435842;28;20048;-61
2023/11/04 06:32:31;;;;;;;0.90;0.30;;;;;;;10.07;67.00;97787.19;10436670;28;20041;-62
2023/11/04 06:37:36;;;;;;;1.17;0.30;;;;;;;10.09;67.02;97768.97;10421589;28;20044;-61
2023/11/04 06:42:37;;;;;;;1.05;0.40;;;;;;;10.21;67.02;97750.16;10420593;28;20140;-60
2023/11/04 06:47:39;;;;;;;0.80;0.30;;;;;;;10.25;67.13;97743.28;10439034;28;20037;-62
2023/11/04 06:52:40;;;;;;;3.00;0.50;;;;;;;10.25;67.11;97735.22;10440160;28;20120;-63
2023/11/04 06:57:41;;;;;;;0.28;0.20;;;;;;;10.37;67.21;97732.50;10426550;28;20048;-60
2023/11/04 07:02:43;;;;;;;1.45;0.30;;;;;;;10.39;67.22;97735.78;10434288;28;20107;-60
2023/11/04 07:07:47;;;;;;;2.15;0.20;;;;;;;10.46;67.51;97734.56;10431554;28;20037;-61
2023/11/04 07:12:48;;;;;;;0.55;0.43;;;;;;;10.47;67.47;97735.41;10430066;28;20052;-62
2023/11/04 07:17:50;;;;;;;1.52;0.28;;;;;;;10.54;67.14;97721.81;10432968;28;20045;-61
2023/11/04 07:22:51;;;;;;;0.40;0.20;;;;;;;10.54;67.25;97724.50;10431838;28;20049;-61
2023/11/04 07:27:53;;;;;;;1.75;0.20;;;;;;;10.51;67.73;97720.44;10425032;28;20060;-56
2023/11/04 07:32:54;;;;;;;0.73;0.25;;;;;;;10.45;67.85;97724.09;10425297;28;20075;-58
2023/11/04 07:37:56;;;;;;;1.42;0.40;;;;;;;10.45;67.90;97711.47;10410387;28;20104;-60
2023/11/04 07:42:58;;;;;;;1.48;0.50;;;;;;;10.58;67.16;97712.22;10416541;28;20127;-60
2023/11/04 07:47:59;;;;;;;0.32;0.10;;;;;;;10.59;67.48;97692.38;10424896;28;20154;-60
2023/11/04 07:53:01;;;;;;;1.75;0.20;;;;;;;10.57;67.41;97695.31;10395424;28;20053;-60
2023/11/04 07:58:03;;;;;;;3.38;0.20;;;;;;;10.71;66.94;97693.94;10428095;28;20045;-61
2023/11/04 08:03:05;;;;;;;1.15;0.35;;;;;;;10.80;67.03;97685.47;10425359;28;20036;-61
2023/11/04 08:08:12;;;;;;;0.90;0.30;;;;;;;10.82;66.54;97672.59;10422528;28;20059;-61
2023/11/04 08:13:13;;;;;;;1.83;0.20;;;;;;;10.85;66.71;97656.81;10428241;28;20057;-60
2023/11/04 08:18:15;;;;;;;0.75;0.47;;;;;;;10.85;67.01;97645.25;10423336;28;20045;-61
2023/11/04 08:23:16;;;;;;;1.75;0.20;;;;;;;10.83;66.41;97634.75;10416497;28;20040;-62
2023/11/04 08:28:18;;;;;;;1.33;0.30;;;;;;;10.93;66.26;97628.72;10412825;28;20049;-62
2023/11/04 08:33:19;;;;;;;0.50;0.10;;;;;;;11.08;65.79;97622.75;10423954;28;20057;-60
2023/11/04 08:38:21;;;;;;;0.25;0.10;;;;;;;11.19;65.58;97608.38;10425149;28;20144;-61
2023/11/04 08:43:22;;;;;;;1.55;0.30;;;;;;;11.17;65.48;97605.13;10426101;28;20047;-62
2023/11/04 08:48:24;;;;;;;0.57;0.10;;;;;;;11.24;65.64;97607.66;10419070;28;20450;-63
2023/11/04 08:53:26;;;;;;;0.75;0.17;;;;;;;11.25;65.52;97601.22;10399649;28;20045;-61
2023/11/04 08:58:27;;;;;;;1.02;0.10;;;;;;;11.41;65.23;97578.81;10416544;28;20411;-60
2023/11/04 09:03:28;;;;;;;0.10;0.10;;;;;;;11.51;64.65;97570.91;10414095;28;20037;-60
2023/11/04 09:08:30;;;;;;;0.38;0.15;;;;;;;11.64;64.42;97567.00;10414903;28;20056;-59
2023/11/04 09:13:31;;;;;;;0.20;0.08;;;;;;;11.89;63.79;97541.47;10428422;28;20407;-61
2023/11/04 09:18:34;;;;;;;0.10;0.10;;;;;;;12.03;63.93;97537.28;10420645;28;20929;-60
2023/11/04 09:23:36;;;;;;;1.02;0.10;;;;;;;12.23;63.42;97527.78;10429279;28;20045;-60
2023/11/04 09:28:38;;;;;;;0.30;0.10;;;;;;;12.27;62.88;97512.72;10410179;28;20041;-60
2023/11/04 09:33:40;;;;;;;1.33;0.10;;;;;;;12.58;62.31;97508.38;10418454;28;20045;-60
2023/11/04 09:38:41;;;;;;;0.40;0.10;;;;;;;12.76;61.57;97499.06;10414893;28;20041;-60
2023/11/04 09:43:43;;;;;;;0.55;0.10;;;;;;;12.74;61.50;97489.59;10429590;28;20045;-61
2023/11/04 09:48:45;;;;;;;0.22;0.03;;;;;;;12.87;61.28;97484.56;10424985;28;21018;-60
2023/11/04 09:53:53;;;;;;;0.90;0.10;;;;;;;13.03;60.50;97481.94;10428070;28;20040;-60
2023/11/04 09:58:54;;;;;;;1.88;0.10;;;;;;;13.08;59.99;97471.97;10410072;28;20068;-60
2023/11/04 10:03:56;;;;;;;0.30;0.10;;;;;;;13.16;59.69;97456.38;10428483;28;20045;-62
2023/11/04 10:08:57;;;;;;;0.85;0.10;;;;;;;13.28;59.63;97441.56;10430020;28;20049;-59
2023/11/04 10:13:59;;;;;;;0.50;0.05;;;;;;;13.29;59.11;97420.81;10437969;28;20500;-63
2023/11/04 10:19:02;;;;;;;0.00;0.00;;;;;;;13.43;58.52;97411.16;10414282;28;20044;-61
2023/11/04 10:24:04;;;;;;;1.65;0.10;;;;;;;13.42;58.33;97403.31;10427030;28;20060;-62
2023/11/04 10:29:07;;;;;;;0.20;0.10;;;;;;;13.66;58.02;97382.03;10428032;28;20079;-60
2023/11/04 10:34:12;;;;;;;0.68;0.22;;;;;;;13.71;57.93;97368.53;10423322;28;20505;-61
2023/11/04 10:39:17;;;;;;;1.27;0.00;;;;;;;13.80;57.44;97356.13;10413919;28;20076;-59
2023/11/04 10:44:26;;;;;;;0.85;0.00;;;;;;;13.83;56.95;97341.25;10423696;28;20056;-63
2023/11/04 10:49:57;;;;;;;0.30;0.25;;;;;;;13.89;56.60;97319.38;10438302;28;20045;-62
2023/11/04 10:55:07;;;;;;;1.63;0.20;;;;;;;14.04;56.52;97317.72;10430605;28;20059;-59
2023/11/04 11:00:13;;;;;;;1.15;0.90;;;;;;;14.04;56.05;97307.75;10427137;28;20045;-60
2023/11/04 11:05:22;;;;;;;1.40;0.00;;;;;;;14.02;56.30;97309.91;10421132;28;20060;-61
2023/11/04 11:10:33;;;;;;;0.00;0.00;;;;;;;13.95;56.00;97293.19;10427853;28;20076;-62
2023/11/04 11:15:35;;;;;;;0.10;0.10;;;;;;;14.01;55.93;97283.97;10395687;28;20488;-61
2023/11/04 11:20:37;;;;;;;0.75;0.10;;;;;;;14.01;55.88;97262.38;10399912;28;20172;-60
2023/11/04 11:25:39;;;;;;;0.10;0.05;;;;;;;14.08;55.47;97254.78;10391303;28;20049;-61
2023/11/04 11:30:43;;;;;;;3.60;0.03;;;;;;;14.02;55.29;97244.25;10406602;28;20421;-60
2023/11/04 11:36:01;;;;;;;0.80;0.20;;;;;;;13.94;55.46;97226.75;10395428;28;20054;-61
2023/11/04 11:41:05;;;;;;;0.50;0.10;;;;;;;13.93;55.39;97216.22;10399953;28;20037;-61
2023/11/04 11:46:08;;;;;;;0.30;0.10;;;;;;;13.93;55.13;97217.03;10384999;28;20049;-62
2023/11/04 11:51:11;;;;;;;1.33;0.10;;;;;;;13.81;55.20;97213.84;10387796;28;20053;-62
2023/11/04 11:56:14;;;;;;;0.98;0.63;;;;;;;13.71;54.85;97213.88;10380830;28;20474;-61
2023/11/04 12:01:19;;;;;;;0.75;0.15;;;;;;;13.63;54.67;97205.25;10390705;28;20056;-61
2023/11/04 12:06:20;;;;;;;0.20;0.10;;;;;;;13.71;54.69;97184.19;10396138;28;20037;-62
2023/11/04 12:11:25;;;;;;;0.17;0.00;;;;;;;13.48;55.57;97168.28;10391859;28;20152;-62
2023/11/04 12:16:28;;;;;;;1.38;0.08;;;;;;;13.59;55.88;97154.78;10382140;28;20049;-61
2023/11/04 12:21:30;;;;;;;0.25;0.08;;;;;;;13.66;55.86;97144.50;10385693;28;20128;-61
2023/11/04 12:26:32;;;;;;;0.98;0.10;;;;;;;13.61;55.98;97137.22;10393390;28;20044;-61
2023/11/04 12:31:34;;;;;;;1.95;0.20;;;;;;;13.63;56.31;97118.06;10383446;28;20041;-61
2023/11/04 12:36:36;;;;;;;0.77;0.15;;;;;;;13.45;57.41;97098.69;10399399;28;20125;-60
2023/11/04 12:41:38;;;;;;;0.20;0.10;;;;;;;13.43;57.97;97086.56;10401010;28;20052;-60
2023/11/04 12:46:40;;;;;;;0.50;0.20;;;;;;;13.36;58.16;97086.84;10384547;28;20061;-60
2023/11/04 12:51:46;;;;;;;0.50;0.10;;;;;;;13.53;57.94;97067.63;10393278;28;20489;-60
2023/11/04 12:56:47;;;;;;;0.55;0.10;;;;;;;13.60;57.94;97054.63;10387440;28;20129;-59
2023/11/04 13:01:50;;;;;;;0.63;0.10;;;;;;;13.76;57.52;97052.66;10394231;28;20041;-60
2023/11/04 13:06:51;;;;;;;2.03;0.17;;;;;;;13.78;57.73;97038.91;10398018;28;20044;-59
2023/11/04 13:11:53;;;;;;;0.40;0.10;;;;;;;13.73;58.20;97041.63;10404456;28;20404;-59
2023/11/04 13:16:55;;;;;;;0.57;0.13;;;;;;;13.39;59.31;97029.66;10395896;28;20045;-62
2023/11/04 13:21:56;;;;;;;1.63;0.20;;;;;;;12.94;60.96;97022.50;10393166;28;20140;-64
2023/11/04 13:26:58;;;;;;;1.20;0.20;;;;;;;12.41;62.57;97022.84;10392452;28;20072;-65
2023/11/04 13:32:01;;;;;;;2.80;0.20;;;;;;;11.97;64.91;97002.63;10393619;28;20042;-67
2023/11/04 13:37:03;;;;;;;0.88;0.10;;;;;;;11.54;66.34;97009.25;10391192;28;20056;-65
2023/11/04 13:42:05;;;;;;;0.20;0.10;;;;;;;11.39;67.22;96997.34;10399152;28;20431;-64
2023/11/04 13:47:06;;;;;;;1.98;0.10;;;;;;;11.22;67.59;97011.00;10394110;28;20534;-64
2023/11/04 13:52:08;;;;;;;2.45;0.30;;;;;;;11.01;68.26;96998.56;10376491;28;20052;-62
2023/11/04 13:57:09;;;;;;;1.65;0.20;;;;;;;10.87;69.00;96998.22;10394734;28;20081;-63
2023/11/04 14:02:10;;;;;;;5.85;0.20;;;;;;;10.68;69.97;97003.19;10395934;28;20046;-61
2023/11/04 14:07:12;;;;;;;0.30;0.20;;;;;;;10.57;70.52;96998.84;10396417;28;20159;-62
2023/11/04 14:12:13;;;;;;;0.68;0.20;;;;;;;10.67;70.65;96991.66;10387132;28;20433;-62
2023/11/04 14:17:15;;;;;;;1.75;0.20;;;;;;;10.68;71.41;96977.16;10396158;28;20057;-62
2023/11/04 14:22:17;;;;;;;0.35;0.10;;;;;;;10.69;71.54;96975.28;10400984;28;20045;-62
2023/11/04 14:27:19;;;;;;;0.57;0.30;;;;;;;10.57;72.30;96975.47;10399363;28;20150;-61
2023/11/04 14:32:22;;;;;;;1.35;0.28;;;;;;;10.50;72.46;96964.16;10401710;28;20057;-63
2023/11/04 14:37:24;;;;;;;0.52;0.20;;;;;;;10.48;72.65;96945.59;10404127;28;20069;-63
2023/11/04 14:42:27;;;;;;;1.52;0.40;;;;;;;10.45;72.91;96927.34;10397130;28;20488;-60
2023/11/04 14:47:28;;;;;;;2.28;0.50;;;;;;;10.50;73.29;96907.75;10395171;28;20040;-64
2023/11/04 14:52:31;;;;;;;0.70;0.38;;;;;;;10.47;73.65;96882.25;10399761;28;20101;-63
2023/11/04 14:57:32;;;;;;;2.85;0.60;;;;;;;10.44;74.19;96881.94;10388476;28;20041;-64
2023/11/04 15:02:34;;;;;;;1.15;0.40;;;;;;;10.45;74.35;96862.91;10400567;28;20037;-65
2023/11/04 15:07:36;;;;;;;2.83;0.45;;;;;;;10.41;74.72;96874.44;10398195;28;20049;-64
2023/11/04 15:12:38;;;;;;;2.28;0.30;;;;;;;10.34;75.27;96850.50;10401675;28;20047;-62
2023/11/04 15:17:39;;;;;;;0.73;0.20;;;;;;;10.27;75.44;96853.38;10400512;28;20420;-63
2023/11/04 15:22:41;;;;;;;0.63;0.20;;;;;;;10.31;75.94;96843.78;10396562;28;20090;-64
2023/11/04 15:27:42;;;;;;;0.10;0.10;;;;;;;10.30;75.74;96858.25;10380967;28;20054;-63
2023/11/04 15:32:44;;;;;;;0.30;0.20;;;;;;;10.28;75.94;96844.25;10396295;28;20479;-62
2023/11/04 15:37:45;;;;;;;0.30;0.20;;;;;;;10.22;75.78;96823.03;10399451;28;20523;-62
2023/11/04 15:42:47;;;;;;;0.45;0.20;;;;;;;10.15;76.20;96825.97;10399411;28;20050;-63
2023/11/04 15:47:49;;;;;;;0.10;0.10;;;;;;;10.15;75.84;96838.53;10373273;28;20050;-63
2023/11/04 15:52:50;;;;;;;0.30;0.10;;;;;;;9.99;76.45;96840.34;10387962;28;20042;-61
2023/11/04 15:57:51;;;;;;;1.27;0.10;;;;;;;10.03;76.21;96839.56;10394632;28;20050;-62
2023/11/04 16:02:53;;;;;;;0.65;0.50;;;;;;;10.04;75.98;96821.59;10405425;28;20044;-62
2023/11/04 16:07:54;;;;;;;0.20;0.10;;;;;;;10.00;76.30;96823.97;10390272;28;20709;-63
2023/11/04 16:12:56;;;;;;;0.77;0.10;;;;;;;9.90;76.64;96814.00;10394359;28;20365;-62
2023/11/04 16:17:58;;;;;;;0.30;0.30;;;;;;;9.80;76.97;96818.50;10397336;28;20041;-61
2023/11/04 16:23:00;;;;;;;0.63;0.20;;;;;;;9.76;76.78;96818.22;10398436;28;20037;-69
2023/11/04 16:28:02;;;;;;;0.45;0.20;;;;;;;9.75;77.02;96818.47;10381552;28;20128;-68
2023/11/04 16:33:03;;;;;;;0.47;0.40;;;;;;;9.70;77.24;96821.91;10387330;28;20041;-68
2023/11/04 16:38:07;;;;;;;0.98;0.30;;;;;;;9.74;77.18;96806.94;10400471;28;20523;-70
2023/11/04 16:43:09;;;;;;;1.00;0.30;;;;;;;9.85;76.91;96775.59;10382092;28;20045;-69
2023/11/04 16:48:11;;;;;;;0.20;0.20;;;;;;;9.84;77.07;96777.47;10377284;28;20144;-70
2023/11/04 16:53:13;;;;;;;0.82;0.28;;;;;;;9.75;77.35;96784.38;10398552;28;20120;-70
2023/11/04 16:58:14;;;;;;;0.20;0.10;;;;;;;9.78;77.51;96758.94;10398732;28;20073;-69
2023/11/04 17:03:16;;;;;;;1.35;0.25;;;;;;;9.86;77.35;96772.66;10395502;28;20060;-73
2023/11/04 17:08:17;;;;;;;0.50;0.25;;;;;;;9.84;77.45;96780.16;10394683;28;20096;-70
2023/11/04 17:13:20;;;;;;;1.80;0.20;;;;;;;9.66;78.29;96794.00;10381040;28;20049;-70
2023/11/04 17:18:22;;;;;;;0.60;0.30;;;;;;;9.77;77.89;96774.22;10365042;28;20052;-68
2023/11/04 17:23:23;;;;;;;2.03;0.30;;;;;;;9.90;77.58;96762.22;10387761;28;20037;-70
2023/11/04 17:28:25;;;;;;;1.77;0.40;;;;;;;9.76;77.89;96777.19;10405480;28;20091;-71
2023/11/04 17:33:26;;;;;;;0.65;0.38;;;;;;;9.86;77.62;96766.50;10402052;28;20569;-70
2023/11/04 17:38:28;;;;;;;1.33;0.28;;;;;;;10.02;77.45;96760.13;10389799;28;20068;-72
2023/11/04 17:43:30;;;;;;;2.50;0.95;;;;;;;9.98;77.58;96761.72;10413040;28;20044;-70
2023/11/04 17:48:32;;;;;;;2.33;0.50;;;;;;;10.01;77.93;96747.81;10413018;28;20488;-71
2023/11/04 17:53:34;;;;;;;1.73;0.50;;;;;;;10.09;77.63;96743.78;10392101;28;20038;-72
2023/11/04 17:58:35;;;;;;;1.42;0.60;;;;;;;10.00;78.01;96746.16;10393287;28;20052;-72
2023/11/04 18:03:37;;;;;;;1.00;0.50;;;;;;;10.03;78.06;96751.03;10374144;28;20068;-71
2023/11/04 18:08:38;;;;;;;1.90;0.50;;;;;;;10.05;78.26;96743.53;10413649;28;20483;-72
2023/11/04 18:13:40;;;;;;;2.63;0.82;;;;;;;10.13;78.27;96736.84;10412621;28;20056;-73
2023/11/04 18:18:41;;;;;;;2.25;0.50;;;;;;;10.12;78.75;96746.75;10433671;28;20041;-72
2023/11/04 18:23:43;;;;;;;1.55;0.50;;;;;;;10.34;78.64;96728.88;10430090;28;20033;-71
2023/11/04 18:28:44;;;;;;;2.05;0.43;;;;;;;10.42;79.40;96731.06;10410299;28;20081;-71
2023/11/04 18:33:46;;;;;;;2.33;0.47;;;;;;;10.50;79.14;96731.38;10427079;28;20068;-71
2023/11/04 18:38:48;;;;;;;0.80;0.40;;;;;;;10.62;79.19;96723.03;10433740;28;20048;-70
2023/11/04 18:43:49;;;;;;;0.50;0.40;;;;;;;10.67;79.18;96720.38;10403789;28;20034;-70
2023/11/04 18:48:51;;;;;;;1.17;0.40;;;;;;;10.79;79.08;96703.19;10414795;28;20508;-70
2023/11/04 18:53:52;;;;;;;0.82;0.40;;;;;;;10.79;79.18;96695.94;10426026;28;20114;-70
2023/11/04 18:58:54;;;;;;;0.68;0.40;;;;;;;10.84;79.21;96693.25;10419822;28;20449;-71
2023/11/04 19:03:55;;;;;;;1.38;0.30;;;;;;;10.90;79.42;96694.06;10415928;28;20080;-70
2023/11/04 19:08:57;;;;;;;2.22;0.43;;;;;;;10.94;79.15;96688.94;10404031;28;20059;-71
2023/11/04 19:13:59;;;;;;;0.63;0.50;;;;;;;11.04;79.21;96673.63;10414678;28;20153;-70
2023/11/04 19:19:00;;;;;;;1.42;0.30;;;;;;;11.04;78.81;96662.09;10412264;28;20053;-69
2023/11/04 19:24:02;;;;;;;1.95;0.40;;;;;;;11.07;79.09;96658.84;10415487;28;20049;-68
2023/11/04 19:29:04;;;;;;;0.82;0.30;;;;;;;11.11;79.04;96674.16;10441440;28;20094;-69
2023/11/04 19:34:06;;;;;;;1.90;0.30;;;;;;;11.14;79.11;96669.31;10433091;28;20057;-68
2023/11/04 19:39:11;;;;;;;0.60;0.25;;;;;;;11.24;79.15;96664.75;10453892;28;20508;-68
2023/11/04 19:44:17;;;;;;;1.02;0.20;;;;;;;11.25;79.18;96668.22;10441002;28;20041;-66
2023/11/04 19:49:20;;;;;;;0.47;0.30;;;;;;;11.31;78.76;96677.91;10397014;28;20053;-68
2023/11/04 19:54:23;;;;;;;0.75;0.30;;;;;;;11.38;78.60;96674.94;10397757;28;20067;-68
2023/11/04 19:59:28;;;;;;;0.65;0.30;;;;;;;11.41;78.40;96663.63;10403428;28;20045;-66
2023/11/04 20:04:34;;;;;;;1.45;0.30;;;;;;;11.51;78.71;96672.50;10408646;28;20052;-66
2023/11/04 20:09:38;;;;;;;2.13;0.70;;;;;;;11.56;78.30;96662.78;10404648;28;20041;-66
2023/11/04 20:14:54;;;;;;;0.93;0.20;;;;;;;11.65;77.97;96650.38;10430136;28;20513;-64
2023/11/04 20:20:07;;;;;;;0.57;0.20;;;;;;;11.71;78.32;96655.47;10362842;28;20128;-65
2023/11/04 20:25:12;;;;;;;1.10;0.20;;;;;;;11.82;78.01;96656.22;10384992;28;20049;-64
2023/11/04 20:30:15;;;;;;;2.72;0.20;;;;;;;11.92;77.89;96641.16;10371773;28;20056;-67
2023/11/04 20:35:17;;;;;;;0.55;0.10;;;;;;;11.95;78.10;96630.66;10392835;28;20049;-65
2023/11/04 20:40:19;;;;;;;1.13;0.20;;;;;;;11.98;78.03;96615.84;10382022;28;20129;-67
2023/11/04 20:45:23;;;;;;;0.45;0.45;;;;;;;12.01;77.82;96616.09;10372002;28;20496;-65
2023/11/04 20:50:26;;;;;;;0.55;0.20;;;;;;;12.09;76.97;96609.31;10393304;28;20081;-66
2023/11/04 20:55:28;;;;;;;1.55;0.20;;;;;;;12.13;77.16;96609.56;10395601;28;20704;-66
2023/11/04 21:00:30;;;;;;;0.50;0.20;;;;;;;12.17;76.61;96616.00;10382321;28;20045;-67
2023/11/04 21:05:32;;;;;;;0.40;0.15;;;;;;;12.21;76.29;96630.53;10378726;28;20042;-65
2023/11/04 21:10:36;;;;;;;0.35;0.10;;;;;;;12.24;76.03;96629.94;10381812;28;20048;-66
2023/11/04 21:15:38;;;;;;;0.57;0.20;;;;;;;12.22;76.06;96638.31;10379033;28;20049;-67
2023/11/04 21:20:44;;;;;;;1.77;0.20;;;;;;;12.29;75.61;96651.47;10425038;28;20038;-67
2023/11/04 21:25:47;;;;;;;0.35;0.20;;;;;;;12.35;75.38;96663.81;10420648;28;20103;-67
2023/11/04 21:30:49;;;;;;;0.68;0.17;;;;;;;12.32;75.63;96668.94;10419994;28;20049;-66
2023/11/04 21:35:52;;;;;;;1.50;0.25;;;;;;;12.31;75.13;96668.16;10404713;28;20049;-67
2023/11/04 21:40:57;;;;;;;0.52;0.20;;;;;;;12.33;75.31;96663.28;10425532;28;20049;-67
2023/11/04 21:45:59;;;;;;;1.13;0.20;;;;;;;12.29;75.53;96673.81;10389049;28;20033;-67
2023/11/04 21:51:01;;;;;;;1.58;0.20;;;;;;;12.33;75.41;96655.22;10399247;28;20034;-66
2023/11/04 21:56:06;;;;;;;2.05;0.30;;;;;;;12.25;75.11;96653.13;10395240;28;20462;-66
2023/11/04 22:01:10;;;;;;;0.60;0.20;;;;;;;12.04;75.92;96655.91;10417425;28;20073;-68
2023/11/04 22:06:13;;;;;;;1.27;0.20;;;;;;;11.87;75.93;96650.03;10438671;28;20053;-70
2023/11/04 22:11:15;;;;;;;1.00;0.17;;;;;;;11.68;76.47;96661.41;10420976;28;20068;-70
2023/11/04 22:16:18;;;;;;;2.15;0.40;;;;;;;11.56;77.06;96655.53;10391757;28;20057;-68
2023/11/04 22:21:22;;;;;;;2.17;0.22;;;;;;;11.49;77.59;96649.63;10371851;28;20052;-68
2023/11/04 22:26:25;;;;;;;0.80;0.30;;;;;;;11.42;77.75;96651.81;10394305;28;20113;-68
2023/11/04 22:31:27;;;;;;;0.52;0.20;;;;;;;11.37;77.91;96641.84;10391590;28;20123;-66
2023/11/04 22:36:30;;;;;;;1.10;0.20;;;;;;;11.30;78.00;96644.84;10386946;28;20674;-68
2023/11/04 22:41:32;;;;;;;1.80;1.08;;;;;;;11.37;78.09;96631.09;10390952;28;20037;-66
2023/11/04 22:46:34;;;;;;;2.53;0.25;;;;;;;11.34;78.00;96630.88;10383323;28;20051;-67
2023/11/04 22:51:37;;;;;;;0.30;0.20;;;;;;;11.32;78.06;96623.84;10383699;28;20053;-68
2023/11/04 22:56:50;;;;;;;5.07;0.28;;;;;;;11.32;77.90;96625.75;10406509;28;20071;-67
2023/11/04 23:01:53;;;;;;;2.08;0.20;;;;;;;11.31;78.07;96618.75;10403384;28;20037;-68
2023/11/04 23:06:55;;;;;;;1.00;0.30;;;;;;;11.35;78.19;96610.94;10381896;28;20105;-68
2023/11/04 23:12:00;;;;;;;3.95;0.20;;;;;;;11.38;77.58;96602.34;10393605;28;20128;-69
2023/11/04 23:17:06;;;;;;;1.50;0.20;;;;;;;11.39;77.98;96612.00;10425085;28;20041;-70
2023/11/04 23:22:09;;;;;;;3.45;0.32;;;;;;;11.37;77.74;96608.78;10445363;28;20060;-69
2023/11/04 23:27:12;;;;;;;2.20;0.22;;;;;;;11.35;78.11;96613.63;10442127;28;20057;-69
2023/11/04 23:32:15;;;;;;;2.05;0.22;;;;;;;11.42;77.72;96624.91;10443895;28;20045;-68